Japan Airlines Virtual Airport Information Service

Amsterdam Schiphol Airport

ICAO: EHAM Country: Netherlands
Latitude: 52.3086 Longitude: 4.76389
Latest Arrival : BAW442 (EGLL-EHAM) Latest Departure : BAW43HA (EHAM-EGLL)


WX CaptureLIVE
Data provided by noaa.gov | Fetched at 13:43:37

METAR : EHAM 061325Z VRB05KT CAVOK 27/17 Q1019 NOSIG

TAF : EHAM 061114Z 0612/0718 22005KT CAVOK BECMG 0612/0615 33008KT BECMG 0618/0621 06007KT BECMG 0623/0702 12007KT


Runway Data for EHAM
Data provided by openaviationdata.com

Runway ID Mag Var Hdg Length Elevation Surface ILS Freq ILS Id ILS Slope
4 -1 42° 6619 ft -11 ft Asphalt -- -- --
6 -1 59° 11429 ft -11 ft Asphalt 110.55 KAG 3
9 -1 88° 11329 ft -11 ft Asphalt -- -- --
18L -1 184° 11155 ft -11 ft Asphalt -- -- --
18R -1 184° 12448 ft -11 ft Asphalt 110.1 VPB 3
18C -1 184° 10812 ft -11 ft Asphalt 109.5 SP 3
22 -1 222° 6619 ft -11 ft Asphalt 109.15 SCH 3
24 -1 239° 11429 ft -11 ft Asphalt -- -- --
27 -1 268° 11329 ft -11 ft Asphalt 111.55 0
36L -1 12448 ft -11 ft Asphalt -- -- --
36R -1 11155 ft -11 ft Asphalt 111.95 ABA 3
36C -1 10812 ft -11 ft Asphalt 108.75 SA 3

Amsterdam Schiphol Airport, Netherlands
Use only for reference purposes



Not for navigational purposes.